createdAt,value
2023-05-14T00:01:04.877Z,70.35
2023-05-14T00:03:31.539Z,70.30
2023-05-14T00:05:58.314Z,69.97
2023-05-14T00:08:25.045Z,70.03
2023-05-14T00:10:52.115Z,70.39
2023-05-14T00:13:18.727Z,70.37
2023-05-14T00:15:45.524Z,70.50
2023-05-14T00:18:12.435Z,70.30
2023-05-14T00:20:39.228Z,70.22
2023-05-14T00:23:05.998Z,70.71
2023-05-14T00:25:32.747Z,70.69
2023-05-14T00:28:00.706Z,71.01
2023-05-14T00:30:27.309Z,70.71
2023-05-14T00:32:54.055Z,70.96
2023-05-14T00:35:21.570Z,71.09
2023-05-14T00:37:48.411Z,70.62
2023-05-14T00:40:15.566Z,70.99
2023-05-14T00:42:42.198Z,71.27
2023-05-14T00:45:09.255Z,70.92
2023-05-14T00:47:36.461Z,70.99
2023-05-14T00:50:04.107Z,70.85
2023-05-14T00:52:32.149Z,71.19
2023-05-14T00:54:59.433Z,71.43
2023-05-14T00:57:26.343Z,71.00
2023-05-14T00:59:53.243Z,71.25
2023-05-14T01:02:19.916Z,71.03
2023-05-14T01:04:46.627Z,71.18
2023-05-14T01:07:40.962Z,71.52
2023-05-14T01:10:26.454Z,71.36
2023-05-14T01:13:04.091Z,71.26
2023-05-14T01:15:36.081Z,71.88
2023-05-14T01:18:10.408Z,71.96
2023-05-14T01:20:37.192Z,71.38
2023-05-14T01:23:03.863Z,71.84
2023-05-14T01:25:31.653Z,71.94
2023-05-14T01:28:17.980Z,72.18
2023-05-14T01:30:57.354Z,72.20
2023-05-14T01:33:27.507Z,72.43
2023-05-14T01:35:55.326Z,71.82
2023-05-14T01:38:22.830Z,72.32
2023-05-14T01:40:50.894Z,71.94
2023-05-14T01:43:17.677Z,72.32
2023-05-14T01:45:44.550Z,72.16
2023-05-14T01:48:11.342Z,72.50
2023-05-14T01:50:38.039Z,72.76
2023-05-14T01:53:04.772Z,72.64
2023-05-14T01:55:31.427Z,72.87
2023-05-14T01:57:58.231Z,72.70
2023-05-14T02:00:27.696Z,73.08
2023-05-14T02:02:54.348Z,72.77
2023-05-14T02:05:21.177Z,73.12
2023-05-14T02:07:47.843Z,73.39
2023-05-14T02:10:14.529Z,73.65
2023-05-14T02:12:41.263Z,73.68
2023-05-14T02:15:10.896Z,73.46
2023-05-14T02:17:37.656Z,73.46
2023-05-14T02:20:04.912Z,73.40
2023-05-14T02:22:31.630Z,73.73
2023-05-14T02:24:58.203Z,73.77
2023-05-14T02:27:25.205Z,73.83
2023-05-14T02:29:51.811Z,73.64
2023-05-14T02:32:18.433Z,74.12
2023-05-14T02:34:45.119Z,74.20
2023-05-14T02:37:11.667Z,74.31
2023-05-14T02:39:38.321Z,74.04
2023-05-14T02:42:05.200Z,74.24
2023-05-14T02:44:32.369Z,74.61
2023-05-14T02:46:59.123Z,74.59
2023-05-14T02:49:25.695Z,74.80
2023-05-14T02:51:54.260Z,74.79
2023-05-14T02:54:24.830Z,74.94
2023-05-14T02:56:51.412Z,75.04
2023-05-14T02:59:18.160Z,75.04
2023-05-14T03:01:45.269Z,74.73
2023-05-14T03:04:12.558Z,74.72
2023-05-14T03:06:39.144Z,74.94
2023-05-14T03:09:05.774Z,74.71
2023-05-14T03:11:32.515Z,74.68
2023-05-14T03:13:59.119Z,74.84
2023-05-14T03:16:25.727Z,74.93
2023-05-14T03:18:52.445Z,75.25
2023-05-14T03:21:19.142Z,74.97
2023-05-14T03:23:45.821Z,75.28
2023-05-14T03:26:12.543Z,75.44
2023-05-14T03:28:40.016Z,75.72
2023-05-14T03:31:06.973Z,75.11
2023-05-14T03:33:33.827Z,75.31
2023-05-14T03:36:00.586Z,75.72
2023-05-14T03:38:27.163Z,75.82
2023-05-14T03:40:54.030Z,75.46
2023-05-14T03:43:20.607Z,75.75
2023-05-14T03:45:47.157Z,75.67
2023-05-14T03:48:13.823Z,76.21
2023-05-14T03:50:40.640Z,76.28
2023-05-14T03:53:07.216Z,75.81
2023-05-14T03:55:33.809Z,75.98
2023-05-14T03:58:00.624Z,76.61
2023-05-14T04:00:27.376Z,76.00
2023-05-14T04:02:54.417Z,76.61
2023-05-14T04:05:21.121Z,76.47
2023-05-14T04:07:47.722Z,76.74
2023-05-14T04:10:14.409Z,76.59
2023-05-14T04:12:41.052Z,76.79
2023-05-14T04:15:08.391Z,76.80
2023-05-14T04:17:35.233Z,76.58
2023-05-14T04:20:02.045Z,76.37
2023-05-14T04:22:28.665Z,76.70
2023-05-14T04:24:55.293Z,76.71
2023-05-14T04:27:22.290Z,76.67
2023-05-14T04:29:50.000Z,76.48
2023-05-14T04:32:17.653Z,76.21
2023-05-14T04:34:44.435Z,76.49
2023-05-14T04:37:11.047Z,76.29
2023-05-14T04:39:38.346Z,76.31
2023-05-14T04:42:06.605Z,76.58
2023-05-14T04:44:37.707Z,76.52
2023-05-14T04:47:04.925Z,76.46
2023-05-14T04:49:31.971Z,76.18
2023-05-14T04:51:58.507Z,75.89
2023-05-14T04:54:25.408Z,75.81
2023-05-14T04:56:52.017Z,76.19
2023-05-14T04:59:18.635Z,76.01
2023-05-14T05:01:45.995Z,76.08
2023-05-14T05:04:13.026Z,76.37
2023-05-14T05:06:39.891Z,76.30
2023-05-14T05:09:06.603Z,76.04
2023-05-14T05:11:33.282Z,75.79
2023-05-14T05:13:59.865Z,75.62
2023-05-14T05:16:26.561Z,75.80
2023-05-14T05:18:53.421Z,75.71
2023-05-14T05:21:20.109Z,75.50
2023-05-14T05:23:46.944Z,75.78
2023-05-14T05:26:13.537Z,76.10
2023-05-14T05:28:40.119Z,75.67
2023-05-14T05:31:07.163Z,75.26
2023-05-14T05:33:35.088Z,74.96
2023-05-14T05:36:01.750Z,73.94
2023-05-14T05:38:28.511Z,73.57
2023-05-14T05:40:55.434Z,72.82
2023-05-14T05:43:22.180Z,72.40
2023-05-14T05:45:48.784Z,71.98
2023-05-14T05:48:15.462Z,71.73
2023-05-14T05:50:44.313Z,71.10
2023-05-14T05:53:10.993Z,70.19
2023-05-14T05:55:37.743Z,70.19
2023-05-14T05:58:04.658Z,69.42
2023-05-14T06:00:31.502Z,68.80
2023-05-14T06:02:58.351Z,69.09
2023-05-14T06:05:25.280Z,68.98
2023-05-14T06:07:53.684Z,68.50
2023-05-14T06:10:20.689Z,67.48
2023-05-14T06:12:47.444Z,66.47
2023-05-14T06:15:14.525Z,65.02
2023-05-14T06:17:41.551Z,63.84
2023-05-14T06:20:09.071Z,61.50
2023-05-14T06:22:35.846Z,59.43
2023-05-14T06:25:02.433Z,57.54
2023-05-14T06:27:29.109Z,56.67
2023-05-14T06:29:55.951Z,54.17
2023-05-14T06:32:22.790Z,53.98
2023-05-14T06:34:49.439Z,54.22
2023-05-14T06:37:16.120Z,54.58
2023-05-14T06:39:50.073Z,54.55
2023-05-14T06:42:17.643Z,55.08
2023-05-14T06:44:44.892Z,55.53
2023-05-14T06:47:11.772Z,55.79
2023-05-14T06:49:38.940Z,55.75
2023-05-14T06:52:05.943Z,56.29
2023-05-14T06:54:32.552Z,56.00
2023-05-14T06:56:59.165Z,55.82
2023-05-14T06:59:26.376Z,55.92
2023-05-14T07:01:53.086Z,56.32
2023-05-14T07:04:19.900Z,55.29
2023-05-14T07:06:46.571Z,55.22
2023-05-14T07:09:13.372Z,54.52
2023-05-14T07:11:40.006Z,54.33
2023-05-14T07:14:06.630Z,54.46
2023-05-14T07:16:33.301Z,54.69
2023-05-14T07:18:59.940Z,54.01
2023-05-14T07:21:26.575Z,52.65
2023-05-14T07:23:53.147Z,53.14
2023-05-14T07:26:19.804Z,52.40
2023-05-14T07:28:46.356Z,52.03
2023-05-14T07:31:13.053Z,50.42
2023-05-14T07:33:39.820Z,50.70
2023-05-14T07:36:07.073Z,50.37
2023-05-14T07:38:33.960Z,48.15
2023-05-14T07:41:00.697Z,47.77
2023-05-14T07:43:27.374Z,46.25
2023-05-14T07:45:54.150Z,45.49
2023-05-14T07:48:21.005Z,46.05
2023-05-14T07:50:49.421Z,46.32
2023-05-14T07:53:16.102Z,47.18
2023-05-14T07:55:44.370Z,47.55
2023-05-14T07:58:10.976Z,46.97
2023-05-14T08:00:37.920Z,47.29
2023-05-14T08:03:05.250Z,47.29
2023-05-14T08:05:33.061Z,47.82
2023-05-14T08:07:59.715Z,48.05
2023-05-14T08:10:26.844Z,48.58
2023-05-14T08:12:53.837Z,49.10
2023-05-14T08:15:20.535Z,49.48
2023-05-14T08:17:47.299Z,50.05
2023-05-14T08:20:14.527Z,50.80
2023-05-14T08:22:41.376Z,51.63
2023-05-14T08:25:08.357Z,51.98
2023-05-14T08:27:35.157Z,51.58
2023-05-14T08:30:01.803Z,52.24
2023-05-14T08:32:28.447Z,52.47
2023-05-14T08:34:55.483Z,52.27
2023-05-14T08:37:22.092Z,52.72
2023-05-14T08:39:49.254Z,52.81
2023-05-14T08:42:20.602Z,53.19
2023-05-14T08:44:55.695Z,53.03
2023-05-14T08:47:23.963Z,52.64
2023-05-14T08:50:04.444Z,52.17
2023-05-14T08:52:31.369Z,52.25
2023-05-14T08:55:00.404Z,52.72
2023-05-14T08:57:30.165Z,52.47
2023-05-14T08:59:57.224Z,52.67
2023-05-14T09:02:27.758Z,53.63
2023-05-14T09:04:55.918Z,53.65
2023-05-14T09:07:22.882Z,53.58
2023-05-14T09:09:50.002Z,54.07
2023-05-14T09:12:16.873Z,54.37
2023-05-14T09:14:44.550Z,54.25
2023-05-14T09:17:12.671Z,54.10
2023-05-14T09:19:43.513Z,54.12
2023-05-14T09:22:13.505Z,54.07
2023-05-14T09:24:41.407Z,54.35
2023-05-14T09:27:09.788Z,53.87
2023-05-14T09:29:37.163Z,53.40
2023-05-14T09:32:05.677Z,53.52
2023-05-14T09:34:34.339Z,52.45
2023-05-14T09:37:05.767Z,52.33
2023-05-14T09:39:33.394Z,51.87
2023-05-14T09:42:00.171Z,51.19
2023-05-14T09:44:27.491Z,51.20
2023-05-14T09:46:54.550Z,51.45
2023-05-14T09:49:21.685Z,52.05
2023-05-14T09:51:51.479Z,51.74
2023-05-14T09:54:18.418Z,51.68
2023-05-14T09:56:45.357Z,51.10
2023-05-14T09:59:12.152Z,50.94
2023-05-14T10:01:39.514Z,50.27
2023-05-14T10:04:08.191Z,50.49
2023-05-14T10:06:39.323Z,49.87
2023-05-14T10:09:13.061Z,49.56
2023-05-14T10:11:43.809Z,49.55
2023-05-14T10:14:29.199Z,48.89
2023-05-14T10:16:59.477Z,49.26
2023-05-14T10:19:26.749Z,48.96
2023-05-14T10:21:57.237Z,49.20
2023-05-14T10:24:24.653Z,49.38
2023-05-14T10:26:51.858Z,47.11
2023-05-14T10:29:18.688Z,47.14
2023-05-14T10:31:49.791Z,47.37
2023-05-14T10:34:40.862Z,47.63
2023-05-14T10:37:16.007Z,47.40
2023-05-14T10:39:44.132Z,47.37
2023-05-14T10:42:13.009Z,46.90
2023-05-14T10:44:47.192Z,47.31
2023-05-14T10:47:15.084Z,47.15
2023-05-14T10:49:44.040Z,47.52
2023-05-14T10:52:12.305Z,47.68
2023-05-14T10:54:39.128Z,48.30
2023-05-14T10:57:11.360Z,48.13
2023-05-14T10:59:41.918Z,48.43
2023-05-14T11:02:20.151Z,46.86
2023-05-14T11:05:05.852Z,47.32
2023-05-14T11:07:40.385Z,47.25
2023-05-14T11:10:12.678Z,46.75
2023-05-14T11:12:42.233Z,46.10
2023-05-14T11:15:14.721Z,45.47
2023-05-14T11:17:43.681Z,44.85
2023-05-14T11:20:11.410Z,44.54
2023-05-14T11:22:39.249Z,45.14
2023-05-14T11:25:06.754Z,44.20
2023-05-14T11:27:39.933Z,43.78
2023-05-14T11:30:17.608Z,43.06
2023-05-14T11:32:46.255Z,41.97
2023-05-14T11:35:13.923Z,40.10
2023-05-14T11:37:40.908Z,39.82
2023-05-14T11:40:12.538Z,39.13
2023-05-14T11:42:39.339Z,38.72
2023-05-14T11:45:06.976Z,37.36
2023-05-14T11:47:33.767Z,36.37
2023-05-14T11:50:01.167Z,36.37
2023-05-14T11:52:27.952Z,35.50
2023-05-14T11:54:54.763Z,33.71
2023-05-14T11:57:22.822Z,33.54
2023-05-14T11:59:55.636Z,33.85
2023-05-14T12:02:23.076Z,34.46
2023-05-14T12:04:54.416Z,34.72
2023-05-14T12:07:21.102Z,34.29
2023-05-14T12:09:49.873Z,33.21
2023-05-14T12:12:20.155Z,30.75
2023-05-14T12:14:47.235Z,30.53
2023-05-14T12:17:18.786Z,30.78
2023-05-14T12:19:48.481Z,31.24
2023-05-14T12:22:17.576Z,30.97
2023-05-14T12:24:53.483Z,31.33
2023-05-14T12:27:24.615Z,31.62
2023-05-14T12:30:19.130Z,31.49
2023-05-14T12:32:49.023Z,31.76
2023-05-14T12:35:15.811Z,31.89
2023-05-14T12:37:43.218Z,31.65
2023-05-14T12:40:10.364Z,31.67
2023-05-14T12:42:37.460Z,30.95
2023-05-14T12:45:07.246Z,30.86
2023-05-14T12:47:34.527Z,31.08
2023-05-14T12:50:01.529Z,30.42
2023-05-14T12:52:37.529Z,30.36
2023-05-14T12:55:07.287Z,29.71
2023-05-14T12:57:35.668Z,29.31
2023-05-14T13:00:06.898Z,29.41
2023-05-14T13:02:42.578Z,29.52
2023-05-14T13:05:11.194Z,29.20
2023-05-14T13:07:38.228Z,29.36
2023-05-14T13:10:08.505Z,29.12
2023-05-14T13:12:35.208Z,29.11
2023-05-14T13:15:02.109Z,28.61
2023-05-14T13:17:28.788Z,28.51
2023-05-14T13:19:55.582Z,29.02
2023-05-14T13:22:22.307Z,29.19
2023-05-14T13:24:48.843Z,28.71
2023-05-14T13:27:15.521Z,28.70
2023-05-14T13:29:42.316Z,28.50
2023-05-14T13:32:09.019Z,29.10
2023-05-14T13:34:36.307Z,29.42
2023-05-14T13:37:03.234Z,28.94
2023-05-14T13:39:29.812Z,28.80
2023-05-14T13:41:57.016Z,28.26
2023-05-14T13:44:24.319Z,28.41
2023-05-14T13:46:51.122Z,28.60
2023-05-14T13:49:17.910Z,28.74
2023-05-14T13:51:44.767Z,28.28
2023-05-14T13:54:11.718Z,28.00
2023-05-14T13:56:38.474Z,27.74
2023-05-14T13:59:05.958Z,27.65
2023-05-14T14:01:32.734Z,27.54
2023-05-14T14:03:59.527Z,27.77
2023-05-14T14:06:27.463Z,27.85
2023-05-14T14:08:54.230Z,27.35
2023-05-14T14:11:21.112Z,27.20
2023-05-14T14:13:47.796Z,27.29
2023-05-14T14:16:14.442Z,27.49
2023-05-14T14:18:43.102Z,27.11
2023-05-14T14:21:10.474Z,27.39
2023-05-14T14:23:37.195Z,27.70
2023-05-14T14:26:04.013Z,27.74
2023-05-14T14:28:31.365Z,27.26
2023-05-14T14:30:58.091Z,28.29
2023-05-14T14:33:24.927Z,27.61
2023-05-14T14:35:51.846Z,27.16
2023-05-14T14:38:18.527Z,28.42
2023-05-14T14:40:46.285Z,28.60
2023-05-14T14:43:13.062Z,28.41
2023-05-14T14:45:39.830Z,28.33
2023-05-14T14:48:26.571Z,27.84
2023-05-14T14:50:53.930Z,28.31
2023-05-14T14:53:21.639Z,28.38
2023-05-14T14:55:49.290Z,28.71
2023-05-14T14:58:16.128Z,29.06
2023-05-14T15:00:43.745Z,28.96
2023-05-14T15:03:10.581Z,29.12
2023-05-14T15:05:37.688Z,29.07
2023-05-14T15:08:04.909Z,29.50
2023-05-14T15:10:32.107Z,30.26
2023-05-14T15:12:59.522Z,29.46
2023-05-14T15:15:26.476Z,30.35
2023-05-14T15:17:53.258Z,31.24
2023-05-14T15:20:19.994Z,31.80
2023-05-14T15:22:46.732Z,31.68
2023-05-14T15:58:03.090Z,37.82
2023-05-14T16:00:29.934Z,37.74
2023-05-14T16:02:56.738Z,37.79
2023-05-14T16:05:23.595Z,37.93
2023-05-14T16:07:50.261Z,38.47
2023-05-14T16:10:16.917Z,38.51
2023-05-14T16:12:43.669Z,38.64
2023-05-14T16:15:10.757Z,39.67
2023-05-14T16:17:37.711Z,42.65
2023-05-14T16:20:05.348Z,44.39
2023-05-14T16:22:36.086Z,46.05
2023-05-14T16:25:04.434Z,47.14
2023-05-14T16:27:31.705Z,47.97
2023-05-14T16:29:58.447Z,49.53
2023-05-14T16:32:25.503Z,50.64
2023-05-14T16:34:52.314Z,51.37
2023-05-14T16:37:22.494Z,51.78
2023-05-14T16:39:49.126Z,52.11
2023-05-14T16:42:15.824Z,52.95
2023-05-14T16:44:42.387Z,53.33
2023-05-14T16:47:08.969Z,53.95
2023-05-14T16:49:35.691Z,54.28
2023-05-14T16:52:02.254Z,54.65
2023-05-14T16:54:28.914Z,55.10
2023-05-14T16:56:55.896Z,55.66
2023-05-14T16:59:22.484Z,55.72
2023-05-14T17:01:49.183Z,54.71
2023-05-14T17:04:15.981Z,54.78
2023-05-14T17:06:42.551Z,54.40
2023-05-14T17:09:09.242Z,54.60
2023-05-14T17:11:36.039Z,54.43
2023-05-14T17:14:02.681Z,54.49
2023-05-14T17:16:29.548Z,54.62
2023-05-14T17:18:56.445Z,55.20
2023-05-14T17:21:23.270Z,55.72
2023-05-14T17:23:49.885Z,55.81
2023-05-14T17:26:18.560Z,55.95
2023-05-14T17:28:45.420Z,56.17
2023-05-14T17:31:12.260Z,56.66
2023-05-14T17:33:39.034Z,56.13
2023-05-14T17:36:06.518Z,56.13
2023-05-14T17:38:33.121Z,56.20
2023-05-14T17:40:59.832Z,56.20
2023-05-14T17:43:26.406Z,56.35
2023-05-14T17:45:54.800Z,56.60
2023-05-14T17:48:22.838Z,57.29
2023-05-14T17:50:50.111Z,56.99
2023-05-14T17:53:16.866Z,57.33
2023-05-14T17:55:43.913Z,58.11
2023-05-14T17:58:13.423Z,58.07
2023-05-14T18:00:40.798Z,59.17
2023-05-14T18:03:10.892Z,59.33
2023-05-14T18:05:37.747Z,59.76
2023-05-14T18:08:04.581Z,60.50
2023-05-14T18:10:31.429Z,61.00
2023-05-14T18:12:58.254Z,61.17
2023-05-14T18:15:25.844Z,61.31
2023-05-14T18:17:53.162Z,61.45
2023-05-14T18:20:20.942Z,61.40
2023-05-14T18:22:47.803Z,61.76
2023-05-14T18:25:14.610Z,62.17
2023-05-14T18:27:45.132Z,62.45
2023-05-14T18:30:14.603Z,62.90
2023-05-14T18:32:43.696Z,63.12
2023-05-14T18:35:11.276Z,63.13
2023-05-14T18:37:37.942Z,63.55
2023-05-14T18:40:06.915Z,63.68
2023-05-14T18:42:34.759Z,64.21
2023-05-14T18:45:01.643Z,64.69
2023-05-14T18:47:28.587Z,64.65
2023-05-14T18:49:57.736Z,65.06
2023-05-14T18:52:24.808Z,65.38
2023-05-14T18:54:51.509Z,65.51
2023-05-14T18:57:18.163Z,65.45
2023-05-14T18:59:44.767Z,65.92
2023-05-14T19:02:11.494Z,65.98
2023-05-14T19:04:50.746Z,66.42
2023-05-14T19:07:18.930Z,67.34
2023-05-14T19:09:45.570Z,66.72
2023-05-14T19:12:12.559Z,66.81
2023-05-14T19:14:39.254Z,67.23
2023-05-14T19:17:05.974Z,67.29
2023-05-14T19:19:32.792Z,67.44
2023-05-14T19:21:59.561Z,67.79
2023-05-14T19:24:26.127Z,67.39
2023-05-14T19:26:53.058Z,67.48
2023-05-14T19:29:19.667Z,68.45
2023-05-14T19:31:47.197Z,68.41
2023-05-14T19:34:13.979Z,68.78
2023-05-14T19:36:41.702Z,68.64
2023-05-14T19:39:08.360Z,68.74
2023-05-14T19:41:35.011Z,69.20
2023-05-14T19:44:01.612Z,69.31
2023-05-14T19:46:28.317Z,69.36
2023-05-14T19:48:54.869Z,69.65
2023-05-14T19:51:21.502Z,69.45
2023-05-14T19:53:48.160Z,69.41
2023-05-14T19:56:15.625Z,69.58
2023-05-14T19:58:42.642Z,70.22
2023-05-14T20:01:09.356Z,70.15
2023-05-14T20:03:36.181Z,70.30
2023-05-14T20:06:02.853Z,69.89
2023-05-14T20:08:29.485Z,70.10
2023-05-14T20:10:56.369Z,69.98
2023-05-14T20:13:25.059Z,70.34
2023-05-14T20:15:52.097Z,70.49
2023-05-14T20:18:18.730Z,70.57
2023-05-14T20:20:45.417Z,70.30
2023-05-14T20:23:12.152Z,70.15
2023-05-14T20:25:38.855Z,69.96
2023-05-14T20:28:05.590Z,70.46
2023-05-14T20:30:32.494Z,70.72
2023-05-14T20:32:59.713Z,70.79
2023-05-14T20:35:26.806Z,70.24
2023-05-14T20:37:53.545Z,70.25
2023-05-14T20:40:21.386Z,70.41
2023-05-14T20:42:50.364Z,70.67
2023-05-14T20:45:17.221Z,70.51
2023-05-14T20:47:44.286Z,70.50
2023-05-14T20:50:11.701Z,71.12
2023-05-14T20:52:38.373Z,70.53
2023-05-14T20:55:05.608Z,70.68
2023-05-14T20:57:32.283Z,71.19
2023-05-14T20:59:58.908Z,71.30
2023-05-14T21:02:25.711Z,71.10
2023-05-14T21:04:52.741Z,71.53
2023-05-14T21:07:19.463Z,71.67
2023-05-14T21:09:50.804Z,71.12
2023-05-14T21:12:17.416Z,71.30
2023-05-14T21:14:43.979Z,71.57
2023-05-14T21:17:10.949Z,71.52
2023-05-14T21:19:37.538Z,71.89
2023-05-14T21:22:04.274Z,71.69
2023-05-14T21:24:31.082Z,71.62
2023-05-14T21:26:57.834Z,72.11
2023-05-14T21:29:24.507Z,72.24
2023-05-14T21:31:51.150Z,72.42
2023-05-14T21:34:17.764Z,72.35
2023-05-14T22:13:13.242Z,73.65
2023-05-14T22:15:39.857Z,74.09
2023-05-14T22:18:06.967Z,73.73
2023-05-14T22:20:33.787Z,73.87
2023-05-14T22:23:00.571Z,73.77
2023-05-14T22:25:27.799Z,73.76
2023-05-14T22:27:54.551Z,73.62
2023-05-14T22:30:21.363Z,73.90
2023-05-14T22:32:48.076Z,73.98
2023-05-14T22:35:14.979Z,73.83
2023-05-14T22:37:41.807Z,74.08
2023-05-14T22:40:09.152Z,74.09
2023-05-14T22:42:36.149Z,74.62
2023-05-14T22:45:03.051Z,74.33
2023-05-14T22:47:29.720Z,74.13
2023-05-14T22:49:56.586Z,74.48
2023-05-14T22:52:23.176Z,74.33
2023-05-14T22:54:51.058Z,74.49
2023-05-14T22:57:18.021Z,74.26
2023-05-14T22:59:44.639Z,74.45
2023-05-14T23:02:11.355Z,74.85
2023-05-14T23:04:38.155Z,74.91
2023-05-14T23:07:05.074Z,74.74
2023-05-14T23:09:31.605Z,74.48
2023-05-14T23:11:58.269Z,74.42
2023-05-14T23:14:24.871Z,74.58
2023-05-14T23:16:51.480Z,74.77
2023-05-14T23:19:18.421Z,74.36
2023-05-14T23:21:45.010Z,74.81
2023-05-14T23:24:11.613Z,74.80
2023-05-14T23:26:38.601Z,74.75
2023-05-14T23:29:05.181Z,74.46
2023-05-14T23:31:32.249Z,74.69
2023-05-14T23:33:59.018Z,75.08
2023-05-14T23:36:25.627Z,75.10
2023-05-14T23:38:52.495Z,74.80
2023-05-14T23:41:19.305Z,74.71
2023-05-14T23:43:45.916Z,75.16
2023-05-14T23:46:13.069Z,75.13
2023-05-14T23:48:39.750Z,75.05
2023-05-14T23:51:06.364Z,75.04
2023-05-14T23:53:32.926Z,74.81
2023-05-14T23:55:59.689Z,74.92
2023-05-14T23:58:26.393Z,74.78
